CheckWX is a tool to help pilots better visualize weather data.  It is not intended as a substitute for an official pre-flight weather briefing.

06:23:59 UTC

KFSD TAF
Joe Foss Field Airport
Sioux Falls, South Dakota, USA
KFSD 080521Z 0806/0906 25008KT P6SM SCT090 FM081700 01005KT P6SM BKN040 FM081900 02007KT P6SM OVC015 FM082100 03009KT P6SM OVC008 FM082300 05009KT P6SM OVC005 PROB30 0903/0905 4SM -FZDZ

Dec-8@
06:00 UTC

Dec-8 @ 06:00 UTC

Dec-8@
17:00 UTC

Dec-8 @ 17:00 UTC

KFSD 080521Z 0806/0906 25008KT P6SM SCT090
Wind
  • 250° at 8 KTS
Cloud Levels
  • Scattered at 9,000' AGL

Dec-8@
17:00 UTC

Dec-8 @ 17:00 UTC

Dec-8@
19:00 UTC

Dec-8 @ 19:00 UTC

FM081700 01005KT P6SM BKN040

From

From Standard forecast or significant change

Wind
  • 010° at 5 KTS
Cloud Levels
  • Broken at 4,000' AGL

Dec-8@
19:00 UTC

Dec-8 @ 19:00 UTC

Dec-8@
21:00 UTC

Dec-8 @ 21:00 UTC

FM081900 02007KT P6SM OVC015

From

From Standard forecast or significant change

Wind
  • 020° at 7 KTS
Cloud Levels
  • Overcast at 1,500' AGL

Dec-8@
21:00 UTC

Dec-8 @ 21:00 UTC

Dec-8@
23:00 UTC

Dec-8 @ 23:00 UTC

FM082100 03009KT P6SM OVC008

From

From Standard forecast or significant change

Wind
  • 030° at 9 KTS
Cloud Levels
  • Overcast at 800' AGL

Dec-8@
23:00 UTC

Dec-8 @ 23:00 UTC

Dec-9@
06:00 UTC

Dec-9 @ 06:00 UTC

FM082300 05009KT P6SM OVC005

From

From Standard forecast or significant change

Wind
  • 050° at 9 KTS
Cloud Levels
  • Overcast at 500' AGL

Dec-9@
03:00 UTC

Dec-9 @ 03:00 UTC

Dec-9@
05:00 UTC

Dec-9 @ 05:00 UTC

PROB30 0903/0905 4SM -FZDZ

Probable - 30% Likelihood

Probable - 30% Likelihood during this time.

Conditions
Light Freezing Light Drizzle